Time;durP1;ratioP1;P1;durP2;ratioP2;P2;SDS_P1;SDS_P2;PMS_P1;PMS_P2;Temp;Humidity;BMP_temperature;BMP_pressure;BME280_temperature;BME280_humidity;BME280_pressure;Samples;Min_cycle;Max_cycle;Signal;HPM_P1;HPM_P2
2021/04/08 00:00:18;;;;;;;9.30;0.40;;;;;;;1.39;45.81;101733.09;4957902;28;20038;-67
2021/04/08 00:02:44;;;;;;;13.98;0.50;;;;;;;1.39;45.71;101738.25;4957257;28;20548;-66
2021/04/08 00:05:12;;;;;;;9.85;2.60;;;;;;;1.68;44.83;101732.59;4962052;28;20035;-66
2021/04/08 00:07:37;;;;;;;6.43;0.95;;;;;;;1.76;44.57;101741.28;4961907;28;20056;-67
2021/04/08 00:10:04;;;;;;;11.38;0.50;;;;;;;1.91;44.03;101746.59;4959135;28;20477;-67
2021/04/08 00:12:29;;;;;;;12.57;1.35;;;;;;;1.60;44.58;101753.13;4956708;28;20042;-66
2021/04/08 00:14:55;;;;;;;5.85;0.28;;;;;;;1.56;44.79;101753.09;4987356;28;20089;-67
2021/04/08 00:17:21;;;;;;;5.40;0.40;;;;;;;1.43;44.76;101746.91;4985752;28;20038;-66
2021/04/08 00:19:46;;;;;;;6.97;0.85;;;;;;;1.43;45.09;101747.78;4956458;28;20045;-66
2021/04/08 00:22:12;;;;;;;10.82;0.75;;;;;;;1.77;44.30;101749.88;4960687;28;20027;-66
2021/04/08 00:24:37;;;;;;;8.30;0.68;;;;;;;1.50;44.90;101747.00;4957557;28;20058;-66
2021/04/08 00:27:03;;;;;;;3.38;0.32;;;;;;;1.52;44.94;101749.59;4972037;28;20042;-66
2021/04/08 00:29:28;;;;;;;5.72;0.20;;;;;;;1.60;44.48;101753.13;4961284;28;20049;-66
2021/04/08 00:31:54;;;;;;;5.25;0.30;;;;;;;1.59;44.40;101758.28;4958566;28;20038;-66
2021/04/08 00:34:19;;;;;;;10.90;0.93;;;;;;;1.66;43.86;101762.63;4972742;28;20046;-66
2021/04/08 00:36:45;;;;;;;16.02;0.70;;;;;;;1.49;43.81;101760.75;4959941;28;20050;-66
2021/04/08 00:39:12;;;;;;;6.30;0.73;;;;;;;1.82;43.45;101766.25;4983445;28;20069;-66
2021/04/08 00:41:38;;;;;;;9.48;0.82;;;;;;;1.84;43.21;101768.03;4961001;28;20042;-66
2021/04/08 00:44:04;;;;;;;4.22;0.60;;;;;;;1.58;43.99;101769.44;4961666;28;20039;-66
2021/04/08 00:46:30;;;;;;;1.52;0.63;;;;;;;1.47;43.94;101767.59;4957237;28;20082;-67
2021/04/08 00:48:55;;;;;;;6.18;0.40;;;;;;;1.67;43.85;101770.41;4961293;28;20197;-66
2021/04/08 00:51:23;;;;;;;2.20;0.20;;;;;;;1.75;43.67;101777.34;4972295;28;20027;-66
2021/04/08 00:53:52;;;;;;;6.60;0.30;;;;;;;1.70;43.75;101774.72;4957799;28;20054;-66
2021/04/08 00:56:17;;;;;;;5.68;0.43;;;;;;;1.74;43.66;101779.06;4958957;28;20044;-65
2021/04/08 00:58:44;;;;;;;11.70;0.63;;;;;;;1.74;43.42;101776.50;4955548;28;20047;-65
2021/04/08 01:01:12;;;;;;;12.27;0.63;;;;;;;1.28;44.24;101781.94;4978857;28;20122;-66
2021/04/08 01:03:39;;;;;;;8.07;0.30;;;;;;;1.49;43.81;101781.34;4963243;28;20034;-65
2021/04/08 01:06:05;;;;;;;3.40;0.25;;;;;;;1.60;43.42;101785.78;4959598;28;20069;-66
2021/04/08 01:08:31;;;;;;;8.07;0.30;;;;;;;1.77;42.65;101786.81;4962656;28;20042;-65
2021/04/08 01:10:57;;;;;;;4.80;0.35;;;;;;;1.34;43.53;101791.41;4959042;28;20559;-66
2021/04/08 01:13:24;;;;;;;2.60;0.25;;;;;;;1.32;43.32;101788.81;4963149;28;20062;-66
2021/04/08 01:15:50;;;;;;;4.20;0.63;;;;;;;1.56;42.78;101791.75;4961196;28;20584;-65
2021/04/08 01:18:27;;;;;;;2.35;0.45;;;;;;;1.72;42.79;101788.50;4960952;28;20031;-66
2021/04/08 01:21:06;;;;;;;1.35;0.20;;;;;;;1.44;43.59;101793.31;4976981;28;20130;-67
2021/04/08 01:23:54;;;;;;;4.45;0.52;;;;;;;1.53;43.48;101797.72;4989147;28;20035;-65
2021/04/08 01:26:39;;;;;;;9.30;0.60;;;;;;;1.82;42.96;101792.03;4962614;28;20066;-68
2021/04/08 01:29:15;;;;;;;5.22;0.63;;;;;;;1.87;42.28;101792.97;4965710;28;20034;-66
2021/04/08 01:31:43;;;;;;;5.00;0.20;;;;;;;2.11;41.87;101805.25;4959940;28;20043;-67
2021/04/08 01:34:13;;;;;;;6.45;1.13;;;;;;;1.91;42.28;101807.63;4961810;28;20260;-66
2021/04/08 01:36:41;;;;;;;2.58;0.65;;;;;;;1.97;42.58;101823.13;4960390;28;20525;-66
2021/04/08 01:39:09;;;;;;;7.45;0.43;;;;;;;1.60;44.31;101827.88;4961207;28;20647;-67
2021/04/08 01:41:37;;;;;;;6.53;0.20;;;;;;;1.47;45.42;101826.84;4986619;28;20043;-67
2021/04/08 01:44:04;;;;;;;3.67;0.32;;;;;;;1.58;46.70;101841.59;4964806;28;20039;-67
2021/04/08 01:46:34;;;;;;;5.60;0.52;;;;;;;1.27;47.93;101841.13;4965234;28;20520;-66
2021/04/08 01:49:01;;;;;;;1.88;0.28;;;;;;;1.36;48.12;101841.25;4959706;28;20065;-66
2021/04/08 01:51:29;;;;;;;8.63;0.47;;;;;;;1.49;47.92;101830.31;4960939;28;20039;-66
2021/04/08 01:53:57;;;;;;;9.75;0.68;;;;;;;1.45;47.92;101827.66;4962958;28;20031;-66
2021/04/08 01:56:28;;;;;;;2.90;0.15;;;;;;;1.49;47.52;101832.88;4964127;28;20041;-67
2021/04/08 01:58:55;;;;;;;6.47;0.50;;;;;;;1.44;47.64;101833.66;4986380;28;20042;-67
2021/04/08 02:01:23;;;;;;;6.70;0.55;;;;;;;1.36;47.54;101838.69;4960250;28;20447;-66
2021/04/08 02:03:50;;;;;;;8.65;0.50;;;;;;;1.19;47.80;101838.44;4963143;28;20033;-66
2021/04/08 02:06:16;;;;;;;11.65;1.10;;;;;;;1.23;47.46;101840.22;4977220;28;20066;-66
2021/04/08 02:08:46;;;;;;;10.20;0.73;;;;;;;1.30;47.28;101843.75;4957039;28;20027;-67
2021/04/08 02:11:13;;;;;;;4.50;0.65;;;;;;;1.16;47.56;101840.97;4962735;28;20031;-67
2021/04/08 02:13:41;;;;;;;6.72;0.47;;;;;;;1.18;47.11;101839.28;4958695;28;20143;-66
2021/04/08 02:16:09;;;;;;;9.63;0.60;;;;;;;1.15;47.27;101841.81;4959771;28;20129;-66
2021/04/08 02:18:36;;;;;;;7.25;0.65;;;;;;;1.11;47.50;101838.31;4960276;28;20047;-66
2021/04/08 02:21:03;;;;;;;5.38;0.40;;;;;;;1.08;47.67;101840.88;4959409;28;20034;-67
2021/04/08 02:23:31;;;;;;;4.20;0.30;;;;;;;1.10;47.51;101839.19;4963935;28;20045;-68
2021/04/08 02:25:58;;;;;;;10.10;1.27;;;;;;;1.08;47.31;101839.97;4985213;28;20100;-65
2021/04/08 02:28:27;;;;;;;15.27;0.73;;;;;;;1.09;47.28;101845.16;4960815;28;20720;-66
2021/04/08 02:30:53;;;;;;;11.80;0.68;;;;;;;0.93;47.83;101843.22;4961727;28;20042;-66
2021/04/08 02:33:27;;;;;;;10.15;1.13;;;;;;;0.95;47.94;101844.09;4958267;28;20030;-67
2021/04/08 02:35:54;;;;;;;8.00;0.82;;;;;;;1.16;47.62;101842.69;4963351;28;20031;-68
2021/04/08 02:38:31;;;;;;;8.07;0.40;;;;;;;1.23;47.60;101839.34;4975476;28;20050;-68
2021/04/08 02:41:02;;;;;;;6.18;0.80;;;;;;;1.28;47.45;101846.31;4958173;28;20108;-66
2021/04/08 02:43:28;;;;;;;7.67;0.30;;;;;;;1.12;47.62;101849.50;4983374;28;20062;-66
2021/04/08 02:45:53;;;;;;;6.45;1.00;;;;;;;1.39;47.10;101846.44;4956964;28;20291;-68
2021/04/08 02:48:21;;;;;;;4.60;0.57;;;;;;;1.35;47.07;101848.94;4964174;28;20030;-68
2021/04/08 02:50:52;;;;;;;4.65;0.25;;;;;;;1.19;47.50;101848.72;4960307;28;20029;-66
2021/04/08 02:53:35;;;;;;;2.72;0.77;;;;;;;1.37;46.88;101852.41;4957997;28;20587;-66
2021/04/08 02:56:24;;;;;;;8.20;0.70;;;;;;;1.36;47.06;101864.44;4987599;28;20089;-66
2021/04/08 02:58:53;;;;;;;6.32;0.50;;;;;;;1.39;46.94;101866.19;4963860;28;20035;-66
2021/04/08 03:01:22;;;;;;;11.57;0.88;;;;;;;1.25;47.51;101859.13;4961746;28;20559;-66
2021/04/08 03:03:52;;;;;;;5.88;0.80;;;;;;;1.34;47.28;101868.69;4958879;28;20117;-67
2021/04/08 03:06:19;;;;;;;5.22;0.45;;;;;;;1.31;47.47;101869.53;4959184;28;20066;-66
2021/04/08 03:08:51;;;;;;;7.85;0.65;;;;;;;1.07;47.63;101870.03;4963423;28;20087;-66
2021/04/08 03:11:23;;;;;;;9.93;0.30;;;;;;;1.29;46.52;101871.22;4960126;28;20053;-66
2021/04/08 03:13:51;;;;;;;7.28;0.65;;;;;;;1.44;46.09;101862.00;4962683;28;20039;-66
2021/04/08 03:16:20;;;;;;;4.18;0.45;;;;;;;1.14;46.20;101868.41;4960985;28;20525;-67
2021/04/08 03:18:49;;;;;;;6.53;0.20;;;;;;;1.08;45.87;101866.63;4955860;28;20042;-66
2021/04/08 03:21:16;;;;;;;6.03;0.20;;;;;;;0.98;45.60;101864.72;4975560;28;20026;-66
2021/04/08 03:23:43;;;;;;;2.58;0.38;;;;;;;0.90;45.46;101863.72;4970654;28;20078;-66
2021/04/08 03:26:09;;;;;;;9.80;0.25;;;;;;;0.92;45.44;101864.63;4959493;28;20691;-67
2021/04/08 03:28:37;;;;;;;4.72;0.10;;;;;;;0.96;44.93;101863.84;4978001;28;20104;-66
2021/04/08 03:31:05;;;;;;;6.72;0.30;;;;;;;0.89;44.67;101868.03;4958550;28;20042;-67
2021/04/08 03:33:33;;;;;;;3.95;0.65;;;;;;;0.79;45.13;101863.59;4964359;28;20042;-66
2021/04/08 03:36:00;;;;;;;6.28;0.35;;;;;;;0.80;44.92;101867.03;4956632;28;21015;-66
2021/04/08 03:38:25;;;;;;;1.25;0.10;;;;;;;0.71;45.29;101879.72;4963225;28;20044;-65
2021/04/08 03:40:52;;;;;;;14.95;0.40;;;;;;;0.66;45.40;101874.50;4977379;28;20041;-66
2021/04/08 03:43:19;;;;;;;1.00;0.13;;;;;;;0.64;45.26;101873.63;4959397;28;20092;-66
2021/04/08 03:45:45;;;;;;;4.05;0.17;;;;;;;0.83;44.97;101873.06;4958609;28;20780;-66
2021/04/08 03:48:13;;;;;;;2.30;0.10;;;;;;;0.63;45.27;101872.72;4961041;28;20045;-67
2021/04/08 03:50:41;;;;;;;2.50;0.32;;;;;;;0.83;45.11;101879.91;4970613;28;20046;-67
2021/04/08 03:53:12;;;;;;;3.28;0.28;;;;;;;0.45;46.04;101875.84;4964420;28;20128;-65
2021/04/08 03:55:40;;;;;;;3.33;0.03;;;;;;;0.61;45.64;101877.00;4982337;28;20047;-66
2021/04/08 03:58:08;;;;;;;1.50;0.13;;;;;;;0.68;45.91;101876.25;4974011;28;20031;-66
2021/04/08 04:00:35;;;;;;;10.60;0.80;;;;;;;0.99;45.14;101881.03;4957343;28;20738;-66
2021/04/08 04:03:01;;;;;;;2.20;0.20;;;;;;;0.89;45.36;101880.03;4958966;28;20176;-66
2021/04/08 04:05:27;;;;;;;5.80;0.65;;;;;;;0.43;47.12;101884.38;4960214;28;20525;-67
2021/04/08 04:07:53;;;;;;;3.17;0.17;;;;;;;0.09;48.56;101896.59;4960714;28;20023;-67
2021/04/08 04:10:21;;;;;;;6.40;0.35;;;;;;;0.61;47.36;101895.00;4971776;28;20748;-66
2021/04/08 04:12:48;;;;;;;9.00;0.35;;;;;;;0.79;46.94;101888.44;4961071;28;20046;-66
2021/04/08 04:15:15;;;;;;;9.15;0.50;;;;;;;0.31;48.54;101894.44;4954870;28;20109;-66
2021/04/08 04:17:40;;;;;;;1.23;0.20;;;;;;;-0.06;49.16;101899.69;4960263;28;20035;-66
2021/04/08 04:20:07;;;;;;;1.83;0.30;;;;;;;0.53;48.46;101906.88;4961473;28;20023;-65
2021/04/08 04:22:33;;;;;;;3.28;0.47;;;;;;;0.50;48.34;101909.34;4971802;28;20043;-67
2021/04/08 04:24:59;;;;;;;1.60;0.08;;;;;;;0.35;48.78;101909.09;4962299;28;20064;-66
2021/04/08 04:27:24;;;;;;;11.98;0.57;;;;;;;0.68;48.02;101907.16;4954735;28;20112;-66
2021/04/08 04:29:50;;;;;;;4.07;0.65;;;;;;;0.07;48.90;101905.97;4961347;28;20030;-66
2021/04/08 04:32:15;;;;;;;3.97;0.30;;;;;;;0.21;48.55;101916.53;4973429;28;20758;-66
2021/04/08 04:34:42;;;;;;;5.55;0.20;;;;;;;0.66;47.20;101908.81;4970430;28;20051;-66
2021/04/08 04:37:10;;;;;;;4.00;0.80;;;;;;;0.96;45.89;101907.59;4962959;28;20054;-67
2021/04/08 04:39:36;;;;;;;3.20;0.13;;;;;;;0.65;46.52;101913.94;4959726;28;20046;-66
2021/04/08 04:42:03;;;;;;;3.00;0.10;;;;;;;1.10;45.49;101915.53;4987269;28;20120;-67
2021/04/08 04:44:29;;;;;;;4.28;0.15;;;;;;;1.26;45.35;101921.81;4961939;28;20042;-65
2021/04/08 04:46:56;;;;;;;1.60;0.85;;;;;;;0.88;45.80;101927.19;4963958;28;20045;-67
2021/04/08 04:49:23;;;;;;;0.70;0.30;;;;;;;0.40;47.03;101925.47;4958976;28;20039;-66
2021/04/08 04:51:49;;;;;;;1.27;0.00;;;;;;;0.56;46.87;101939.50;4958953;28;20144;-67
2021/04/08 04:54:15;;;;;;;2.53;0.17;;;;;;;0.21;47.89;101935.41;4957802;28;20035;-66
2021/04/08 04:56:40;;;;;;;1.88;0.10;;;;;;;0.25;48.74;101937.19;4974965;28;20046;-66
2021/04/08 04:59:06;;;;;;;1.65;0.38;;;;;;;0.65;48.02;101931.94;4954913;28;20062;-66
2021/04/08 05:01:31;;;;;;;1.77;0.10;;;;;;;0.75;47.30;101923.56;4956735;28;20482;-67
2021/04/08 05:03:57;;;;;;;3.00;0.73;;;;;;;1.19;45.81;101919.97;4958963;28;20082;-67
2021/04/08 05:06:24;;;;;;;1.35;0.10;;;;;;;0.97;43.63;101917.06;4970987;28;20031;-67
2021/04/08 05:08:49;;;;;;;5.93;0.10;;;;;;;1.55;41.40;101929.13;4960426;28;20027;-66
2021/04/08 05:11:15;;;;;;;2.35;0.32;;;;;;;1.39;42.19;101922.88;4959651;28;20631;-66
2021/04/08 05:13:40;;;;;;;1.52;0.10;;;;;;;1.44;43.10;101931.56;4970753;28;20047;-66
2021/04/08 05:16:07;;;;;;;6.43;0.20;;;;;;;1.52;43.64;101927.38;4959819;28;20042;-69
2021/04/08 05:18:32;;;;;;;0.47;0.08;;;;;;;1.43;44.64;101935.84;4970468;28;20039;-67
2021/04/08 05:20:58;;;;;;;2.22;0.10;;;;;;;1.38;45.29;101936.59;4975708;28;20049;-66
2021/04/08 05:23:24;;;;;;;1.77;0.13;;;;;;;1.23;45.93;101947.53;4959236;28;20039;-66
2021/04/08 05:25:50;;;;;;;2.58;0.20;;;;;;;1.27;46.21;101945.00;4955672;28;20180;-69
2021/04/08 05:28:16;;;;;;;2.53;0.10;;;;;;;1.27;46.19;101945.00;4958080;28;20648;-68
2021/04/08 05:30:42;;;;;;;2.55;0.15;;;;;;;0.99;47.51;101946.28;4957658;28;20042;-67
2021/04/08 05:33:08;;;;;;;3.92;0.65;;;;;;;1.19;47.22;101938.00;4943157;28;20093;-68
2021/04/08 05:35:33;;;;;;;1.85;0.10;;;;;;;1.29;46.93;101940.75;4959013;28;20045;-67
2021/04/08 05:37:59;;;;;;;4.63;0.30;;;;;;;1.19;47.63;101945.72;4960579;28;20038;-70
2021/04/08 05:40:24;;;;;;;1.50;0.10;;;;;;;0.84;48.91;101946.88;4986041;28;20031;-67
2021/04/08 05:42:50;;;;;;;2.22;0.10;;;;;;;0.56;49.13;101950.66;4957379;28;20035;-67
2021/04/08 05:45:17;;;;;;;2.05;0.10;;;;;;;1.94;47.98;101945.16;4972275;28;20035;-67
2021/04/08 05:47:44;;;;;;;3.33;0.10;;;;;;;3.24;44.24;101952.53;4973688;28;20066;-67
2021/04/08 05:50:11;;;;;;;1.85;0.08;;;;;;;4.42;41.23;101955.78;4977265;28;20125;-67
2021/04/08 05:52:37;;;;;;;1.77;0.20;;;;;;;3.52;42.09;101956.22;4959599;28;20081;-68
2021/04/08 05:55:04;;;;;;;1.73;0.13;;;;;;;2.87;43.13;101957.41;4963264;28;20031;-67
2021/04/08 05:57:30;;;;;;;5.18;0.10;;;;;;;3.58;42.82;101958.84;4959187;28;20054;-67
2021/04/08 05:59:55;;;;;;;3.45;0.10;;;;;;;5.88;37.26;101947.16;4963310;28;20042;-68
2021/04/08 06:02:21;;;;;;;0.85;0.10;;;;;;;7.66;34.41;101953.81;4960811;28;20046;-68
2021/04/08 06:04:47;;;;;;;1.25;0.03;;;;;;;8.32;32.57;101957.41;4960605;28;20126;-67
2021/04/08 06:07:13;;;;;;;2.50;0.40;;;;;;;8.74;31.44;101962.91;4979918;28;20037;-67
2021/04/08 06:09:38;;;;;;;3.50;0.10;;;;;;;9.13;32.06;101968.38;4973871;28;20035;-67
2021/04/08 06:12:05;;;;;;;2.95;0.38;;;;;;;9.15;31.15;101967.47;4960940;28;20150;-68
2021/04/08 06:14:31;;;;;;;0.77;0.10;;;;;;;7.99;32.16;101980.34;4961524;28;20039;-67
2021/04/08 06:16:57;;;;;;;1.33;0.15;;;;;;;5.91;36.22;101988.69;4959835;28;20035;-69
2021/04/08 06:19:23;;;;;;;5.47;0.10;;;;;;;7.04;35.59;101973.41;4958685;28;20078;-69
2021/04/08 06:21:48;;;;;;;2.92;0.10;;;;;;;7.46;33.14;101979.13;4973294;28;20066;-69
2021/04/08 06:24:14;;;;;;;5.25;0.20;;;;;;;6.46;34.58;101977.25;4975702;28;20130;-69
2021/04/08 06:26:39;;;;;;;7.78;0.20;;;;;;;5.27;36.79;101975.81;4961896;28;20043;-68
2021/04/08 06:29:06;;;;;;;3.78;0.20;;;;;;;4.02;39.86;101991.84;4961319;28;20035;-69
2021/04/08 06:31:33;;;;;;;10.57;0.30;;;;;;;5.74;37.66;101985.28;4960391;28;20045;-69
2021/04/08 06:33:59;;;;;;;2.40;0.10;;;;;;;7.95;33.51;101991.69;4977051;28;21105;-66
2021/04/08 06:36:24;;;;;;;2.90;0.10;;;;;;;9.77;29.99;101976.81;4954019;28;20105;-67
2021/04/08 06:38:50;;;;;;;5.55;0.10;;;;;;;11.33;27.37;101974.28;4964802;28;20042;-67
2021/04/08 06:41:16;;;;;;;1.05;0.10;;;;;;;11.58;27.33;101977.13;4961565;28;20157;-67
2021/04/08 06:43:46;;;;;;;1.60;0.00;;;;;;;11.44;27.87;101982.72;4959556;28;20045;-67
2021/04/08 06:46:16;;;;;;;1.70;0.20;;;;;;;9.26;30.39;101985.56;4961036;28;20014;-66
2021/04/08 06:48:47;;;;;;;2.08;0.10;;;;;;;7.06;33.93;101979.47;4960644;28;20039;-67
2021/04/08 06:51:21;;;;;;;2.83;0.28;;;;;;;6.12;35.65;101982.56;4963573;28;20035;-66
2021/04/08 06:53:50;;;;;;;3.05;0.30;;;;;;;5.57;37.85;101983.56;4962880;28;20691;-66
2021/04/08 06:56:17;;;;;;;7.15;0.50;;;;;;;5.16;39.30;101981.84;4958008;28;20417;-66
2021/04/08 06:58:43;;;;;;;1.15;0.40;;;;;;;5.21;38.27;101987.91;4962474;28;20047;-69
2021/04/08 07:01:10;;;;;;;4.90;0.45;;;;;;;4.69;39.10;101990.38;4958682;28;20047;-69
2021/04/08 07:03:36;;;;;;;5.45;0.35;;;;;;;4.87;38.85;101988.69;4958055;28;20035;-69
2021/04/08 07:06:02;;;;;;;1.67;0.20;;;;;;;6.52;37.06;101986.75;4955770;28;20042;-67
2021/04/08 07:08:32;;;;;;;1.92;0.10;;;;;;;10.99;28.85;101989.06;4959868;28;20030;-69
2021/04/08 07:10:58;;;;;;;4.50;0.10;;;;;;;12.79;25.46;101983.28;4960902;28;20035;-67
2021/04/08 07:13:28;;;;;;;2.85;0.10;;;;;;;11.51;27.85;101988.63;4959260;28;20074;-67
2021/04/08 07:15:55;;;;;;;7.45;0.50;;;;;;;10.25;29.51;101999.41;4959735;28;20577;-68
2021/04/08 07:18:24;;;;;;;3.40;0.10;;;;;;;10.10;30.33;102006.69;4984985;28;20058;-67
2021/04/08 07:20:50;;;;;;;3.33;0.20;;;;;;;5.58;37.33;102011.22;4957670;28;20035;-67
2021/04/08 07:23:16;;;;;;;4.22;0.40;;;;;;;7.22;35.75;102001.91;4965880;28;20054;-67
2021/04/08 07:26:07;;;;;;;5.22;0.20;;;;;;;8.45;32.30;102004.97;4960392;28;20529;-67
2021/04/08 07:28:34;;;;;;;8.27;0.30;;;;;;;9.40;30.07;101999.22;4959812;28;20039;-67
2021/04/08 07:31:29;;;;;;;5.35;0.68;;;;;;;12.26;27.32;102008.41;4975123;28;20047;-68
2021/04/08 07:34:00;;;;;;;1.92;0.80;;;;;;;14.58;24.62;101999.78;4959078;28;20528;-68
2021/04/08 07:36:31;;;;;;;1.85;0.10;;;;;;;15.14;23.24;101996.63;4963846;28;20034;-68
2021/04/08 07:38:58;;;;;;;5.33;0.10;;;;;;;14.16;23.39;101995.19;4971886;28;20043;-68
2021/04/08 07:41:30;;;;;;;2.95;0.57;;;;;;;11.91;25.98;102012.06;4959367;28;20062;-68
2021/04/08 07:44:02;;;;;;;1.08;0.10;;;;;;;11.22;26.88;102000.75;4958502;28;20035;-67
2021/04/08 07:46:44;;;;;;;0.63;0.10;;;;;;;11.99;26.67;102009.22;4955963;28;20125;-66
2021/04/08 07:49:31;;;;;;;1.08;0.10;;;;;;;11.32;27.37;102007.44;4957213;28;20489;-67
2021/04/08 07:52:13;;;;;;;2.97;0.32;;;;;;;11.40;27.74;102010.75;4970222;28;20035;-67
2021/04/08 07:54:39;;;;;;;;;;;;;;;8.30;32.10;102019.06;4974291;28;20070;-66
2021/04/08 07:57:05;;;;;;;4.72;0.20;;;;;;;6.70;34.90;102023.03;4959130;28;19961;-67
2021/04/08 07:59:30;;;;;;;6.28;0.20;;;;;;;5.46;38.33;102026.81;4962776;28;20425;-67
2021/04/08 08:02:06;;;;;;;2.75;0.30;;;;;;;4.38;42.75;102034.28;4956613;28;20449;-68
2021/04/08 08:04:32;;;;;;;3.45;0.15;;;;;;;3.90;44.35;102042.69;4983140;28;20082;-68
2021/04/08 08:06:59;;;;;;;5.40;0.63;;;;;;;3.82;44.99;102039.16;4984449;28;20054;-66
2021/04/08 08:09:28;;;;;;;0.98;0.10;;;;;;;3.07;45.62;102052.25;4954577;28;20058;-66
2021/04/08 08:11:57;;;;;;;2.22;0.20;;;;;;;1.83;49.88;102049.84;4984709;28;20043;-66
2021/04/08 08:14:40;;;;;;;2.30;0.13;;;;;;;2.00;50.60;102056.94;4961861;28;20090;-66
2021/04/08 08:17:07;;;;;;;0.43;0.05;;;;;;;2.32;49.93;102066.03;4970800;28;20031;-66
2021/04/08 08:19:34;;;;;;;0.55;0.10;;;;;;;0.28;52.77;102067.56;4958629;28;20042;-66
2021/04/08 08:22:00;;;;;;;2.60;0.10;;;;;;;1.20;50.90;102076.25;4972280;28;20074;-67
2021/04/08 08:24:26;;;;;;;3.17;0.55;;;;;;;1.23;51.98;102081.44;4957929;28;20031;-64
2021/04/08 08:26:53;;;;;;;2.92;0.30;;;;;;;2.23;49.82;102065.91;4961163;28;20054;-65
2021/04/08 08:29:21;;;;;;;3.22;0.10;;;;;;;1.61;51.96;102064.09;4983265;28;23660;-65
2021/04/08 08:31:54;;;;;;;2.88;0.20;;;;;;;2.46;51.19;102068.78;4957773;28;20038;-64
2021/04/08 08:34:26;;;;;;;4.32;0.25;;;;;;;3.72;49.03;102064.09;4972541;28;20062;-64
2021/04/08 08:36:54;;;;;;;2.63;0.28;;;;;;;4.38;45.85;102059.31;4974161;28;20043;-64
2021/04/08 08:39:28;;;;;;;2.63;0.22;;;;;;;6.21;43.43;102049.16;4972066;28;20047;-66
2021/04/08 08:41:55;;;;;;;1.15;0.13;;;;;;;5.96;44.48;102053.56;4955639;28;20056;-65
2021/04/08 08:44:21;;;;;;;2.60;0.20;;;;;;;6.81;41.13;102062.81;4955946;28;20118;-66
2021/04/08 08:46:59;;;;;;;7.13;0.88;;;;;;;6.54;42.97;102063.81;4957120;28;20811;-66
2021/04/08 08:49:31;;;;;;;7.55;0.40;;;;;;;7.24;41.08;102052.13;4969927;28;20038;-64
2021/04/08 08:51:59;;;;;;;1.77;0.10;;;;;;;7.38;41.72;102061.56;4986028;28;20094;-68
2021/04/08 08:54:25;;;;;;;9.10;0.55;;;;;;;6.50;42.26;102068.13;4955532;28;20089;-66
2021/04/08 08:56:53;;;;;;;1.88;0.30;;;;;;;6.06;42.04;102063.94;4968619;28;20039;-66
2021/04/08 08:59:19;;;;;;;2.15;0.10;;;;;;;4.94;44.70;102071.66;4972461;28;20134;-65
2021/04/08 09:01:44;;;;;;;3.13;0.65;;;;;;;5.04;44.64;102064.78;4955460;28;20043;-66
2021/04/08 09:04:11;;;;;;;2.75;0.20;;;;;;;4.70;44.45;102066.34;4958463;28;20057;-66
2021/04/08 09:06:41;;;;;;;3.60;1.05;;;;;;;4.57;44.78;102068.06;4953839;28;20098;-65
2021/04/08 09:09:11;;;;;;;3.15;0.22;;;;;;;4.61;44.69;102074.97;4956448;28;20059;-65
2021/04/08 09:11:39;;;;;;;2.20;0.20;;;;;;;4.68;43.69;102071.53;4972020;28;20039;-65
2021/04/08 09:14:05;;;;;;;3.20;0.10;;;;;;;5.70;42.68;102071.75;4969165;28;20057;-65
2021/04/08 09:16:31;;;;;;;4.70;0.50;;;;;;;5.10;43.47;102080.34;4971880;28;20538;-65
2021/04/08 09:19:02;;;;;;;5.70;0.17;;;;;;;4.44;44.16;102072.31;4956034;28;20043;-65
2021/04/08 09:21:45;;;;;;;1.25;0.30;;;;;;;3.05;46.60;102070.34;4955728;28;20464;-65
2021/04/08 09:24:15;;;;;;;2.58;0.20;;;;;;;4.19;45.89;102071.31;4962239;28;20034;-66
2021/04/08 09:26:43;;;;;;;3.30;0.52;;;;;;;4.16;46.15;102077.34;4956841;28;20043;-67
2021/04/08 09:29:11;;;;;;;4.55;0.73;;;;;;;4.45;45.34;102075.75;4963138;28;20030;-65
2021/04/08 09:31:37;;;;;;;2.45;0.20;;;;;;;3.02;47.11;102084.94;4959269;28;20102;-66
2021/04/08 09:34:04;;;;;;;2.10;0.30;;;;;;;3.42;46.79;102081.06;4972656;28;20038;-67
2021/04/08 09:36:35;;;;;;;5.15;0.65;;;;;;;4.16;44.94;102081.63;4976559;28;20062;-65
2021/04/08 09:39:00;;;;;;;6.18;0.40;;;;;;;3.06;46.63;102087.56;4975333;28;20122;-66
2021/04/08 09:41:38;;;;;;;1.83;0.40;;;;;;;3.81;45.76;102087.44;4963912;28;20189;-65
2021/04/08 09:44:03;;;;;;;3.30;0.40;;;;;;;4.32;43.78;102077.41;4976075;28;20038;-66
2021/04/08 09:46:39;;;;;;;1.92;0.20;;;;;;;3.97;43.16;102072.91;4956864;28;20051;-65
2021/04/08 09:49:05;;;;;;;1.88;0.22;;;;;;;4.51;41.68;102074.06;4987659;28;20034;-66
2021/04/08 09:51:45;;;;;;;1.50;0.20;;;;;;;3.38;44.01;102079.28;4963636;28;20812;-67
2021/04/08 09:54:15;;;;;;;1.23;0.73;;;;;;;4.00;43.90;102086.69;4958538;28;20058;-66
2021/04/08 09:56:46;;;;;;;1.42;0.22;;;;;;;4.16;42.53;102079.03;4960604;28;20039;-66
2021/04/08 09:59:13;;;;;;;2.42;0.82;;;;;;;3.83;43.89;102065.03;4958113;28;20197;-66
2021/04/08 10:01:39;;;;;;;5.45;0.20;;;;;;;3.59;43.43;102060.53;4977894;28;20122;-66
2021/04/08 10:04:10;;;;;;;0.93;0.32;;;;;;;4.93;41.58;102062.16;4964796;28;20227;-66
2021/04/08 10:06:36;;;;;;;1.10;0.10;;;;;;;4.79;41.28;102062.09;4977955;28;20053;-67
2021/04/08 10:09:06;;;;;;;4.82;0.32;;;;;;;4.86;42.07;102075.06;4968480;28;20125;-67
2021/04/08 10:11:32;;;;;;;3.85;0.30;;;;;;;4.07;41.68;102071.22;4970861;28;20036;-66
2021/04/08 10:13:58;;;;;;;6.03;0.40;;;;;;;5.10;41.27;102069.97;4961629;28;20055;-66
2021/04/08 10:16:24;;;;;;;4.85;0.38;;;;;;;5.09;40.83;102068.22;4963843;28;20460;-65
2021/04/08 10:19:01;;;;;;;6.65;0.40;;;;;;;5.40;39.99;102063.09;4967684;28;20361;-65
2021/04/08 10:21:27;;;;;;;8.70;0.80;;;;;;;6.02;39.57;102058.75;4971019;28;20465;-67
2021/04/08 10:23:54;;;;;;;8.38;0.52;;;;;;;5.76;39.98;102053.59;4994114;28;20058;-68
2021/04/08 10:26:20;;;;;;;3.90;1.20;;;;;;;5.34;41.36;102063.09;4967083;28;20042;-66
2021/04/08 10:28:51;;;;;;;8.60;1.42;;;;;;;4.24;41.44;102050.63;4979326;28;20085;-65
2021/04/08 10:31:28;;;;;;;2.85;0.30;;;;;;;4.91;40.77;102053.50;4968572;28;20545;-66
2021/04/08 10:34:03;;;;;;;3.88;0.38;;;;;;;4.58;41.82;102049.06;4971158;28;20062;-66
2021/04/08 10:36:29;;;;;;;2.80;0.63;;;;;;;4.81;41.28;102052.59;4961141;28;20041;-66
2021/04/08 10:39:14;;;;;;;5.00;0.65;;;;;;;5.34;41.05;102039.75;4968020;28;20057;-67
2021/04/08 10:41:54;;;;;;;5.32;0.85;;;;;;;5.39;40.70;102045.78;4964812;28;20066;-65
2021/04/08 10:44:24;;;;;;;3.65;0.30;;;;;;;5.92;41.01;102028.47;4955799;28;20742;-66
2021/04/08 10:46:52;;;;;;;4.28;0.40;;;;;;;6.85;37.63;102028.13;4975892;28;20696;-65
2021/04/08 10:49:26;;;;;;;2.17;0.22;;;;;;;6.02;38.52;102032.78;4960194;28;20049;-65
2021/04/08 10:51:53;;;;;;;4.35;0.30;;;;;;;5.87;37.77;102029.34;4973470;28;20038;-66
2021/04/08 10:54:19;;;;;;;2.47;0.30;;;;;;;6.20;37.94;102037.91;4988587;28;20043;-66
2021/04/08 10:56:49;;;;;;;7.40;0.60;;;;;;;5.59;38.72;102027.63;4956196;28;20046;-65
2021/04/08 10:59:22;;;;;;;4.18;0.30;;;;;;;5.72;37.42;102036.28;4962883;28;20047;-65
2021/04/08 11:01:50;;;;;;;3.97;0.30;;;;;;;5.49;37.14;102031.97;4973096;28;20431;-65
2021/04/08 11:04:17;;;;;;;3.55;0.43;;;;;;;5.34;38.69;102026.78;4991054;28;20070;-67
2021/04/08 11:06:42;;;;;;;2.03;0.68;;;;;;;5.38;37.86;102028.53;4968265;28;20039;-66
2021/04/08 11:09:08;;;;;;;4.70;0.68;;;;;;;5.20;38.57;102037.16;4963001;28;20067;-67
2021/04/08 11:11:34;;;;;;;4.88;0.40;;;;;;;5.41;37.33;102028.50;4963718;28;20045;-65
2021/04/08 11:14:00;;;;;;;9.30;0.55;;;;;;;6.21;35.56;102028.41;4959607;28;20078;-65
2021/04/08 11:16:28;;;;;;;7.75;0.63;;;;;;;5.41;37.78;102026.81;4960072;28;20093;-66
2021/04/08 11:18:59;;;;;;;4.32;0.30;;;;;;;6.79;35.60;102007.38;4962868;28;20031;-66
2021/04/08 11:21:26;;;;;;;4.00;0.55;;;;;;;7.21;34.35;102015.75;4973168;28;20053;-65
2021/04/08 11:23:53;;;;;;;3.22;0.20;;;;;;;4.67;34.96;102018.00;4958305;28;20039;-66
2021/04/08 11:26:19;;;;;;;0.88;0.30;;;;;;;5.03;34.70;102018.97;4958249;28;20030;-65
2021/04/08 11:28:45;;;;;;;4.57;0.38;;;;;;;5.18;35.08;102015.56;4961090;28;20039;-66
2021/04/08 11:31:15;;;;;;;7.82;0.77;;;;;;;5.58;33.81;102011.22;4961850;28;20038;-67
2021/04/08 11:33:41;;;;;;;4.68;0.63;;;;;;;5.60;34.13;102009.50;4972293;28;20049;-66
2021/04/08 11:36:18;;;;;;;2.00;0.52;;;;;;;6.50;33.68;102005.78;4958251;28;20050;-66